Time;durP1;ratioP1;P1;durP2;ratioP2;P2;SDS_P1;SDS_P2;PMS_P1;PMS_P2;Temp;Humidity;BMP_temperature;BMP_pressure;BME280_temperature;BME280_humidity;BME280_pressure;Samples;Min_cycle;Max_cycle;Signal;HPM_P1;HPM_P2
2021/09/01 00:00:27;;;;;;;7.50;5.07;;;14.10;79.30;;;;;;4803573;29;20045;-74
2021/09/01 00:02:55;;;;;;;6.13;5.20;;;14.00;79.40;;;;;;4804965;29;20054;-74
2021/09/01 00:05:23;;;;;;;8.85;5.43;;;14.10;79.50;;;;;;4804729;29;20065;-74
2021/09/01 00:07:50;;;;;;;8.25;5.13;;;14.10;79.60;;;;;;4802825;29;20485;-74
2021/09/01 00:10:18;;;;;;;11.27;5.38;;;14.10;79.60;;;;;;4804795;29;20059;-74
2021/09/01 00:12:47;;;;;;;8.45;5.28;;;14.10;79.70;;;;;;4804108;29;20055;-75
2021/09/01 00:15:15;;;;;;;6.85;4.57;;;14.10;79.60;;;;;;4804432;29;20058;-74
2021/09/01 00:17:42;;;;;;;7.47;5.10;;;14.00;79.60;;;;;;4804886;29;20410;-74
2021/09/01 00:20:11;;;;;;;8.90;4.95;;;14.00;79.60;;;;;;4804619;29;20055;-75
2021/09/01 00:22:38;;;;;;;8.48;4.63;;;14.00;79.50;;;;;;4803623;29;20039;-74
2021/09/01 00:25:08;;;;;;;5.40;4.35;;;14.00;79.40;;;;;;4804282;29;20062;-74
2021/09/01 00:27:36;;;;;;;9.27;4.60;;;14.00;79.40;;;;;;4803787;29;20516;-73
2021/09/01 00:30:04;;;;;;;5.65;4.10;;;14.10;79.50;;;;;;4817429;29;20066;-73
2021/09/01 00:32:32;;;;;;;5.55;4.10;;;14.00;79.40;;;;;;4804086;29;20047;-74
2021/09/01 00:35:00;;;;;;;8.35;4.30;;;14.00;79.30;;;;;;4802588;29;20050;-74
2021/09/01 00:37:28;;;;;;;8.00;3.92;;;14.00;79.20;;;;;;4813784;29;20043;-74
2021/09/01 00:39:56;;;;;;;5.65;4.28;;;14.00;79.10;;;;;;4800748;29;20523;-74
2021/09/01 00:42:24;;;;;;;6.03;4.00;;;14.00;79.00;;;;;;4800230;29;20516;-74
2021/09/01 00:44:52;;;;;;;9.30;4.40;;;14.00;78.90;;;;;;4813309;29;20051;-74
2021/09/01 00:47:24;;;;;;;9.77;4.35;;;14.00;78.90;;;;;;4799208;29;20054;-74
2021/09/01 00:49:52;;;;;;;7.80;4.10;;;13.90;78.90;;;;;;4800088;29;20047;-74
2021/09/01 00:52:20;;;;;;;6.63;4.05;;;13.90;79.00;;;;;;4799924;29;20257;-74
2021/09/01 00:54:50;;;;;;;7.18;4.00;;;13.80;79.20;;;;;;4800854;29;20062;-74
2021/09/01 00:57:20;;;;;;;7.13;4.28;;;13.80;79.30;;;;;;4802555;29;20074;-74
2021/09/01 00:59:48;;;;;;;8.18;4.50;;;13.80;79.30;;;;;;4803017;29;20061;-75
2021/09/01 01:02:16;;;;;;;7.57;4.40;;;13.70;79.40;;;;;;4803536;29;20064;-74
2021/09/01 01:04:45;;;;;;;9.80;4.95;;;13.70;79.50;;;;;;4802193;29;20051;-74
2021/09/01 01:07:12;;;;;;;16.38;4.70;;;13.70;79.50;;;;;;4807621;29;20063;-75
2021/09/01 01:09:40;;;;;;;12.35;4.90;;;13.70;79.60;;;;;;4807781;29;20054;-75
2021/09/01 01:12:08;;;;;;;10.98;4.90;;;13.70;79.70;;;;;;4807637;29;20055;-75
2021/09/01 01:14:39;;;;;;;8.40;4.72;;;13.60;79.80;;;;;;4805849;29;20065;-75
2021/09/01 01:17:09;;;;;;;9.32;4.93;;;13.50;79.90;;;;;;4802973;29;20042;-75
2021/09/01 01:19:48;;;;;;;10.07;5.28;;;13.40;80.10;;;;;;4802957;29;20061;-75
2021/09/01 01:22:17;;;;;;;9.10;5.25;;;13.30;80.40;;;;;;4803376;29;20489;-75
2021/09/01 01:24:58;;;;;;;11.43;4.90;;;13.10;80.60;;;;;;4817035;29;20054;-75
2021/09/01 01:27:41;;;;;;;9.48;5.10;;;12.90;80.90;;;;;;4802835;29;20039;-75
2021/09/01 01:30:18;;;;;;;7.15;5.07;;;12.90;81.10;;;;;;4802914;29;20047;-74
2021/09/01 01:32:52;;;;;;;8.45;4.72;;;12.80;81.30;;;;;;4802104;29;20063;-74
2021/09/01 01:35:43;;;;;;;8.80;5.13;;;12.80;81.30;;;;;;4803345;29;20055;-74
2021/09/01 01:38:15;;;;;;;12.88;5.88;;;12.70;81.20;;;;;;4802304;29;20067;-74
2021/09/01 01:40:43;;;;;;;15.80;5.95;;;12.70;81.20;;;;;;4816113;29;20070;-74
2021/09/01 01:43:11;;;;;;;13.00;5.75;;;12.60;81.10;;;;;;4802695;29;20054;-75
2021/09/01 01:45:44;;;;;;;13.93;6.30;;;12.50;81.20;;;;;;4802171;29;20050;-74
2021/09/01 01:48:14;;;;;;;14.25;6.20;;;12.50;81.20;;;;;;4799715;29;20062;-74
2021/09/01 01:50:43;;;;;;;10.90;6.00;;;12.50;81.10;;;;;;4801091;29;20494;-75
2021/09/01 01:53:12;;;;;;;10.02;6.15;;;12.60;81.10;;;;;;4802214;29;20057;-75
2021/09/01 01:55:41;;;;;;;10.27;6.40;;;12.70;80.90;;;;;;4802162;29;20066;-75
2021/09/01 01:58:09;;;;;;;15.10;7.13;;;12.70;80.90;;;;;;4815762;29;20673;-75
2021/09/01 02:00:36;;;;;;;10.43;6.40;;;12.70;81.00;;;;;;4802940;29;20046;-74
2021/09/01 02:03:04;;;;;;;9.65;6.30;;;12.70;81.10;;;;;;4816156;29;20659;-75
2021/09/01 02:05:32;;;;;;;13.07;6.43;;;12.80;81.30;;;;;;4802568;29;20047;-75
2021/09/01 02:08:00;;;;;;;11.73;6.63;;;12.80;81.30;;;;;;4803024;29;20473;-75
2021/09/01 02:10:27;;;;;;;14.38;6.78;;;12.80;81.40;;;;;;4801890;29;20062;-73
2021/09/01 02:12:55;;;;;;;10.63;7.38;;;12.80;81.50;;;;;;4802227;29;20504;-74
2021/09/01 02:15:23;;;;;;;11.35;7.50;;;12.80;81.60;;;;;;4801913;29;20058;-74
2021/09/01 02:17:50;;;;;;;15.02;7.57;;;12.80;81.60;;;;;;4806378;29;20412;-74
2021/09/01 02:20:18;;;;;;;18.33;8.98;;;12.80;81.70;;;;;;4806504;29;20059;-74
2021/09/01 02:22:47;;;;;;;13.05;7.82;;;12.80;81.80;;;;;;4806042;29;20055;-74
2021/09/01 02:25:15;;;;;;;15.93;8.23;;;12.70;81.70;;;;;;4805734;29;20055;-74
2021/09/01 02:27:43;;;;;;;13.77;8.10;;;12.50;82.00;;;;;;4804608;29;20065;-73
2021/09/01 02:30:12;;;;;;;13.45;8.68;;;12.40;82.30;;;;;;4805915;29;20055;-74
2021/09/01 02:32:40;;;;;;;14.68;8.45;;;12.20;82.70;;;;;;4806260;29;20050;-73
2021/09/01 02:35:08;;;;;;;17.65;9.02;;;12.00;83.00;;;;;;4805791;29;20042;-75
2021/09/01 02:37:36;;;;;;;16.38;9.80;;;11.80;83.40;;;;;;4804895;29;20382;-74
2021/09/01 02:40:04;;;;;;;16.52;9.15;;;11.70;83.80;;;;;;4806185;29;20067;-75
2021/09/01 02:42:31;;;;;;;18.42;9.68;;;11.50;84.30;;;;;;4804561;29;20046;-73
2021/09/01 02:45:00;;;;;;;17.35;9.60;;;11.30;84.60;;;;;;4804865;29;20055;-75
2021/09/01 02:47:28;;;;;;;14.50;9.35;;;11.30;84.90;;;;;;4805976;29;20055;-74
2021/09/01 02:49:56;;;;;;;14.05;8.85;;;11.20;85.10;;;;;;4805945;29;20099;-75
2021/09/01 02:52:23;;;;;;;16.75;9.45;;;11.20;85.30;;;;;;4805749;29;20051;-75
2021/09/01 02:54:51;;;;;;;15.30;8.80;;;11.10;85.40;;;;;;4789428;29;20394;-76
2021/09/01 02:57:19;;;;;;;14.95;8.88;;;11.00;85.60;;;;;;4803437;29;20054;-77
2021/09/01 02:59:46;;;;;;;15.38;8.90;;;10.90;85.80;;;;;;4805761;29;20051;-75
2021/09/01 03:02:14;;;;;;;17.15;9.43;;;10.90;86.00;;;;;;4804357;29;20073;-75
2021/09/01 03:04:42;;;;;;;14.35;8.05;;;10.90;86.00;;;;;;4805275;29;20054;-75
2021/09/01 03:07:09;;;;;;;12.23;7.28;;;11.00;85.90;;;;;;4805238;29;20065;-75
2021/09/01 03:09:37;;;;;;;10.85;6.95;;;11.10;85.80;;;;;;4804073;29;20055;-75
2021/09/01 03:12:05;;;;;;;15.25;7.38;;;11.20;85.70;;;;;;4805390;29;20046;-74
2021/09/01 03:14:33;;;;;;;16.70;6.75;;;11.30;85.50;;;;;;4805067;29;20066;-75
2021/09/01 03:17:00;;;;;;;9.68;6.43;;;11.30;85.40;;;;;;4805214;29;20208;-73
2021/09/01 03:19:28;;;;;;;11.93;6.90;;;11.40;85.30;;;;;;4803270;29;20523;-73
2021/09/01 03:21:55;;;;;;;18.80;7.57;;;11.50;85.20;;;;;;4804951;29;20069;-74
2021/09/01 03:24:23;;;;;;;12.40;8.20;;;11.60;85.10;;;;;;4818740;29;20054;-74
2021/09/01 03:26:51;;;;;;;17.70;7.38;;;11.70;85.00;;;;;;4805229;29;20050;-74
2021/09/01 03:29:18;;;;;;;11.70;7.25;;;11.80;84.90;;;;;;4818358;29;20058;-74
2021/09/01 03:31:46;;;;;;;11.27;6.97;;;11.80;84.80;;;;;;4804002;29;20051;-74
2021/09/01 03:34:13;;;;;;;15.32;7.82;;;11.80;84.80;;;;;;4805278;29;20047;-74
2021/09/01 03:36:41;;;;;;;16.38;7.43;;;11.90;84.80;;;;;;4805026;29;20054;-74
2021/09/01 03:39:08;;;;;;;14.77;7.78;;;11.90;84.90;;;;;;4804004;29;20050;-74
2021/09/01 03:41:36;;;;;;;12.70;7.47;;;11.90;84.90;;;;;;4804989;29;20067;-74
2021/09/01 03:44:04;;;;;;;14.40;7.82;;;11.90;84.90;;;;;;4805119;29;20055;-74
2021/09/01 03:46:32;;;;;;;19.27;7.53;;;12.00;84.90;;;;;;4803978;29;20054;-74
2021/09/01 03:48:59;;;;;;;13.82;8.70;;;12.00;84.90;;;;;;4786987;30;20074;-74
2021/09/01 03:51:27;;;;;;;18.60;7.82;;;12.00;84.90;;;;;;4804207;29;20054;-74
2021/09/01 03:53:54;;;;;;;20.00;8.43;;;12.00;84.90;;;;;;4805146;29;20073;-74
2021/09/01 03:56:22;;;;;;;15.52;7.90;;;12.00;85.00;;;;;;4804163;29;20408;-74
2021/09/01 03:58:50;;;;;;;16.42;8.18;;;12.00;85.00;;;;;;4818891;29;20373;-75
2021/09/01 04:01:17;;;;;;;16.20;7.93;;;12.00;85.00;;;;;;4818274;29;20059;-74
2021/09/01 04:03:45;;;;;;;17.67;8.50;;;12.00;85.10;;;;;;4803925;29;20083;-74
2021/09/01 04:06:12;;;;;;;17.38;9.55;;;12.00;85.10;;;;;;4802917;29;20532;-74
2021/09/01 04:08:40;;;;;;;18.33;8.77;;;12.00;85.20;;;;;;4804896;29;20062;-74
2021/09/01 04:11:07;;;;;;;19.02;9.63;;;12.00;85.20;;;;;;4804844;29;20493;-74
2021/09/01 04:13:36;;;;;;;20.63;9.90;;;12.00;85.30;;;;;;4804810;29;20398;-74
2021/09/01 04:16:03;;;;;;;18.60;10.10;;;12.00;85.40;;;;;;4804843;29;20532;-74
2021/09/01 04:18:31;;;;;;;15.88;10.55;;;12.00;85.40;;;;;;4818679;29;20097;-74
2021/09/01 04:20:59;;;;;;;17.75;9.85;;;12.00;85.50;;;;;;4803392;29;20429;-74
2021/09/01 04:23:26;;;;;;;20.38;10.02;;;12.00;85.50;;;;;;4803233;29;20055;-74
2021/09/01 04:25:54;;;;;;;24.50;10.50;;;12.00;85.60;;;;;;4804463;29;20051;-74
2021/09/01 04:28:22;;;;;;;20.95;9.38;;;12.00;85.60;;;;;;4804803;29;20062;-74
2021/09/01 04:30:50;;;;;;;22.42;9.55;;;12.00;85.60;;;;;;4804040;29;20058;-74
2021/09/01 04:33:17;;;;;;;20.25;9.95;;;12.10;85.60;;;;;;4808602;29;20493;-74
2021/09/01 04:35:45;;;;;;;23.02;11.13;;;12.10;85.60;;;;;;4807894;29;20059;-74
2021/09/01 04:38:12;;;;;;;20.15;10.13;;;12.10;85.60;;;;;;4807392;29;20051;-74
2021/09/01 04:40:41;;;;;;;22.65;10.35;;;12.20;85.70;;;;;;4806815;29;20051;-74
2021/09/01 04:43:08;;;;;;;23.15;10.27;;;12.10;85.70;;;;;;4791850;29;20061;-74
2021/09/01 04:45:36;;;;;;;21.00;10.55;;;12.10;85.70;;;;;;4821620;29;20453;-74
2021/09/01 04:48:07;;;;;;;21.45;10.35;;;12.10;85.70;;;;;;4807902;29;20065;-74
2021/09/01 04:50:34;;;;;;;23.70;11.35;;;12.20;85.80;;;;;;4807101;29;20065;-74
2021/09/01 04:53:02;;;;;;;24.40;11.15;;;12.10;85.80;;;;;;4807824;29;20043;-74
2021/09/01 04:55:29;;;;;;;22.42;11.00;;;12.20;85.80;;;;;;4807845;29;20058;-74
2021/09/01 04:57:57;;;;;;;21.58;11.93;;;12.10;85.80;;;;;;4807825;29;20070;-74
2021/09/01 05:00:25;;;;;;;20.63;11.27;;;12.10;85.80;;;;;;4807285;29;20054;-74
2021/09/01 05:02:52;;;;;;;19.60;12.07;;;12.10;85.90;;;;;;4807933;29;20370;-74
2021/09/01 05:05:20;;;;;;;20.30;11.52;;;12.20;86.00;;;;;;4807836;29;20047;-74
2021/09/01 05:07:49;;;;;;;19.77;12.02;;;12.10;86.10;;;;;;4806034;29;20488;-74
2021/09/01 05:10:16;;;;;;;21.65;11.38;;;12.10;86.10;;;;;;4805723;29;20055;-73
2021/09/01 05:12:50;;;;;;;20.45;11.80;;;12.10;86.10;;;;;;4806082;29;20065;-75
2021/09/01 05:15:19;;;;;;;;;;;12.10;86.20;;;;;;4807959;29;20047;-75
2021/09/01 05:17:47;;;;;;;18.50;11.48;;;12.10;86.20;;;;;;4807284;29;19924;-75
2021/09/01 05:20:16;;;;;;;15.63;11.13;;;12.10;86.00;;;;;;4807371;29;20054;-75
2021/09/01 05:22:45;;;;;;;24.08;11.90;;;12.10;86.10;;;;;;4807253;29;20054;-75
2021/09/01 05:25:16;;;;;;;20.75;10.85;;;12.20;86.10;;;;;;4806921;29;20073;-75
2021/09/01 05:27:49;;;;;;;22.52;11.50;;;12.20;86.20;;;;;;4807237;29;20049;-75
2021/09/01 05:30:18;;;;;;;24.83;11.47;;;12.20;86.20;;;;;;4807125;29;20508;-75
2021/09/01 05:32:49;;;;;;;19.80;10.95;;;12.30;86.20;;;;;;4805696;29;20067;-75
2021/09/01 05:35:17;;;;;;;21.48;11.95;;;12.20;86.20;;;;;;4805558;29;20055;-75
2021/09/01 05:37:45;;;;;;;21.98;11.57;;;12.30;86.20;;;;;;4806362;29;20062;-75
2021/09/01 05:40:13;;;;;;;31.38;11.75;;;12.30;86.10;;;;;;4806893;29;20080;-75
2021/09/01 05:42:40;;;;;;;20.38;11.90;;;12.30;86.10;;;;;;4806843;29;20520;-75
2021/09/01 05:45:09;;;;;;;17.85;11.57;;;12.30;86.10;;;;;;4805867;29;20059;-75
2021/09/01 05:47:37;;;;;;;19.65;11.63;;;12.40;86.10;;;;;;4806572;29;20413;-75
2021/09/01 05:50:05;;;;;;;19.55;11.40;;;12.40;86.00;;;;;;4805515;29;20513;-75
2021/09/01 05:52:33;;;;;;;19.42;10.88;;;12.40;86.00;;;;;;4806820;29;20493;-75
2021/09/01 05:55:09;;;;;;;21.42;11.48;;;12.40;85.90;;;;;;4820206;29;20051;-75
2021/09/01 05:57:44;;;;;;;19.23;11.05;;;12.50;85.90;;;;;;4806788;29;20224;-75
2021/09/01 06:00:14;;;;;;;18.38;10.85;;;12.50;85.80;;;;;;4806728;29;20237;-75
2021/09/01 06:02:59;;;;;;;20.50;10.77;;;12.50;85.80;;;;;;4806764;29;20054;-75
2021/09/01 06:05:28;;;;;;;22.15;10.68;;;12.50;85.80;;;;;;4795496;29;20063;-75
2021/09/01 06:07:58;;;;;;;24.63;11.65;;;12.50;85.70;;;;;;4806532;29;20413;-75
2021/09/01 06:10:29;;;;;;;21.67;11.88;;;12.60;85.70;;;;;;4805951;29;20055;-75
2021/09/01 06:13:03;;;;;;;24.45;11.82;;;12.60;85.60;;;;;;4805681;29;20051;-75
2021/09/01 06:15:31;;;;;;;18.63;11.43;;;12.60;85.60;;;;;;4820108;29;20051;-75
2021/09/01 06:18:00;;;;;;;19.15;11.57;;;12.60;85.50;;;;;;4806538;29;20063;-75
2021/09/01 06:20:28;;;;;;;20.40;11.63;;;12.70;85.50;;;;;;4805360;29;20051;-75
2021/09/01 06:22:57;;;;;;;22.77;11.70;;;12.70;85.40;;;;;;4806192;29;20055;-75
2021/09/01 06:25:25;;;;;;;20.88;11.40;;;12.70;85.30;;;;;;4806240;29;20043;-75
2021/09/01 06:27:53;;;;;;;17.77;10.77;;;12.80;85.30;;;;;;4805134;29;20046;-75
2021/09/01 06:30:21;;;;;;;20.35;11.02;;;12.80;85.20;;;;;;4805395;29;20051;-75
2021/09/01 06:32:49;;;;;;;25.23;12.25;;;12.80;85.10;;;;;;4806113;29;20059;-75
2021/09/01 06:35:18;;;;;;;19.38;10.95;;;12.80;85.00;;;;;;4802123;29;20436;-75
2021/09/01 06:37:46;;;;;;;20.05;10.98;;;12.90;85.00;;;;;;4804557;29;20059;-74
2021/09/01 06:40:15;;;;;;;19.02;10.45;;;12.90;84.90;;;;;;4805581;29;20043;-75
2021/09/01 06:42:43;;;;;;;19.00;10.90;;;12.90;84.80;;;;;;4805477;29;20046;-76
2021/09/01 06:45:11;;;;;;;17.27;10.02;;;12.90;84.80;;;;;;4818993;29;20063;-74
2021/09/01 06:47:52;;;;;;;23.77;10.00;;;13.00;84.60;;;;;;4805948;29;20512;-74
2021/09/01 06:50:22;;;;;;;16.05;10.10;;;13.00;84.50;;;;;;4804682;29;20046;-74
2021/09/01 06:52:50;;;;;;;21.35;9.65;;;13.00;84.50;;;;;;4805680;29;20057;-74
2021/09/01 06:55:18;;;;;;;22.75;10.05;;;13.10;84.40;;;;;;4805558;29;20078;-74
2021/09/01 06:57:46;;;;;;;17.92;10.20;;;13.10;84.30;;;;;;4805656;29;20047;-74
2021/09/01 07:00:16;;;;;;;19.88;9.55;;;13.20;84.20;;;;;;4805540;29;20408;-75
2021/09/01 07:02:45;;;;;;;19.83;9.43;;;13.20;84.10;;;;;;4805517;29;20047;-75
2021/09/01 07:05:14;;;;;;;18.95;8.55;;;13.20;84.00;;;;;;4806004;29;20050;-75
2021/09/01 07:07:43;;;;;;;21.52;8.70;;;13.20;83.80;;;;;;4805617;29;20066;-75
2021/09/01 07:10:12;;;;;;;20.40;9.05;;;13.20;83.60;;;;;;4804344;29;20417;-74
2021/09/01 07:12:40;;;;;;;17.05;9.32;;;13.20;83.50;;;;;;4805299;29;20070;-75
2021/09/01 07:15:09;;;;;;;22.10;9.02;;;13.20;83.50;;;;;;4805364;29;20397;-75
2021/09/01 07:17:38;;;;;;;20.33;8.88;;;13.20;83.40;;;;;;4805043;29;20066;-75
2021/09/01 07:20:07;;;;;;;16.88;8.80;;;13.30;83.30;;;;;;4805414;29;20047;-75
2021/09/01 07:22:35;;;;;;;14.43;10.20;;;13.30;83.20;;;;;;4805125;29;20047;-75
2021/09/01 07:25:03;;;;;;;17.83;9.93;;;13.40;83.10;;;;;;4804991;29;20081;-75
2021/09/01 07:27:32;;;;;;;22.98;10.55;;;13.50;83.00;;;;;;4818298;29;20533;-75
2021/09/01 07:30:00;;;;;;;23.25;10.23;;;13.50;82.90;;;;;;4804839;29;20065;-75
2021/09/01 07:32:27;;;;;;;35.05;11.20;;;13.50;82.90;;;;;;4804468;29;20063;-75
2021/09/01 07:34:55;;;;;;;23.92;11.27;;;13.60;83.00;;;;;;4805154;29;20062;-76
2021/09/01 07:37:23;;;;;;;28.65;11.15;;;13.70;82.90;;;;;;4805134;29;20251;-75
2021/09/01 07:39:51;;;;;;;23.88;10.63;;;13.70;82.80;;;;;;4804539;29;20497;-74
2021/09/01 07:42:18;;;;;;;21.33;11.10;;;13.70;82.70;;;;;;4804810;29;20054;-75
2021/09/01 07:44:46;;;;;;;22.30;11.07;;;13.70;82.60;;;;;;4805386;29;20062;-75
2021/09/01 07:47:14;;;;;;;25.27;10.52;;;13.80;82.60;;;;;;4788487;29;20437;-75
2021/09/01 07:49:41;;;;;;;16.45;10.23;;;13.80;82.50;;;;;;4788867;29;20510;-75
2021/09/01 07:52:09;;;;;;;21.85;10.30;;;13.80;82.30;;;;;;4804702;29;20051;-76
2021/09/01 07:54:37;;;;;;;14.77;9.38;;;13.80;82.20;;;;;;4805047;29;20405;-75
2021/09/01 07:57:04;;;;;;;20.42;10.90;;;13.80;82.00;;;;;;4817898;29;20046;-75
2021/09/01 07:59:32;;;;;;;21.70;10.52;;;13.80;82.00;;;;;;4804828;29;20051;-75
2021/09/01 08:02:00;;;;;;;20.20;11.07;;;13.80;82.00;;;;;;4803882;29;20501;-75
2021/09/01 08:04:28;;;;;;;21.30;10.60;;;13.80;82.10;;;;;;4803889;29;20050;-75
2021/09/01 08:06:56;;;;;;;18.83;10.50;;;13.80;82.20;;;;;;4807647;29;20059;-76
2021/09/01 08:09:23;;;;;;;22.10;9.43;;;13.80;82.20;;;;;;4808843;29;20055;-75
2021/09/01 08:11:51;;;;;;;20.13;9.93;;;13.80;82.20;;;;;;4806670;29;20537;-75
2021/09/01 08:14:18;;;;;;;16.73;9.00;;;13.80;82.20;;;;;;4808609;29;20099;-75
2021/09/01 08:16:47;;;;;;;18.45;9.43;;;13.80;82.20;;;;;;4808356;29;20051;-75
2021/09/01 08:19:15;;;;;;;19.23;9.95;;;13.80;82.00;;;;;;4808755;29;20047;-75
2021/09/01 08:21:42;;;;;;;19.95;9.63;;;13.80;81.90;;;;;;4806962;29;20408;-75
2021/09/01 08:24:10;;;;;;;17.00;9.32;;;13.90;81.80;;;;;;4822916;29;20489;-75
2021/09/01 08:26:38;;;;;;;20.63;9.52;;;13.90;81.80;;;;;;4807102;29;20066;-75
2021/09/01 08:29:05;;;;;;;17.25;10.23;;;14.00;81.70;;;;;;4808113;29;20046;-75
2021/09/01 08:31:33;;;;;;;17.80;10.82;;;14.00;81.80;;;;;;4808048;29;20350;-75
2021/09/01 08:34:01;;;;;;;15.63;9.80;;;14.00;81.80;;;;;;4808024;29;20059;-75
2021/09/01 08:36:29;;;;;;;22.20;11.02;;;13.90;81.90;;;;;;4807880;29;20051;-74
2021/09/01 08:38:57;;;;;;;16.80;10.70;;;13.80;82.10;;;;;;4807955;29;20552;-75
2021/09/01 08:41:27;;;;;;;23.65;10.73;;;13.80;82.30;;;;;;4805064;29;20485;-75
2021/09/01 08:43:56;;;;;;;17.13;10.63;;;13.80;82.50;;;;;;4807997;29;20058;-75
2021/09/01 08:46:23;;;;;;;19.02;11.80;;;13.80;82.50;;;;;;4796932;29;20055;-75
2021/09/01 08:48:52;;;;;;;20.80;11.25;;;13.90;82.60;;;;;;4808155;29;20416;-75
2021/09/01 08:51:20;;;;;;;23.05;10.82;;;13.90;82.80;;;;;;4807624;29;20050;-75
2021/09/01 08:53:48;;;;;;;24.55;11.90;;;14.00;82.90;;;;;;4807743;29;20069;-75
2021/09/01 08:56:18;;;;;;;22.38;12.43;;;14.10;82.70;;;;;;4806505;29;20051;-75
2021/09/01 08:58:46;;;;;;;19.77;12.27;;;14.20;82.60;;;;;;4804273;29;20043;-75
2021/09/01 09:01:44;;;;;;;26.92;12.35;;;14.20;82.60;;;;;;4804373;29;20051;-75
2021/09/01 09:04:19;;;;;;;16.33;11.88;;;14.30;82.60;;;;;;4807629;29;20043;-75
2021/09/01 09:06:50;;;;;;;17.50;11.35;;;14.30;82.50;;;;;;4807447;29;20046;-75
2021/09/01 09:09:20;;;;;;;16.88;10.90;;;14.30;82.40;;;;;;4807666;29;20043;-75
2021/09/01 09:11:47;;;;;;;19.25;11.55;;;14.40;82.30;;;;;;4807712;29;20444;-75
2021/09/01 09:14:33;;;;;;;21.50;12.55;;;14.30;82.30;;;;;;4807646;29;20065;-74
2021/09/01 09:17:10;;;;;;;22.23;12.98;;;14.20;82.50;;;;;;4806137;29;20054;-76
2021/09/01 09:19:54;;;;;;;20.80;12.10;;;14.30;82.70;;;;;;4807307;29;20047;-74
2021/09/01 09:22:25;;;;;;;22.42;11.57;;;14.30;82.80;;;;;;4806852;29;20059;-74
2021/09/01 09:25:18;;;;;;;23.98;12.30;;;14.30;82.80;;;;;;4790521;29;20063;-75
2021/09/01 09:27:54;;;;;;;20.55;12.00;;;14.40;82.70;;;;;;4815972;29;20038;-75
2021/09/01 09:30:32;;;;;;;20.65;11.73;;;14.40;82.70;;;;;;4806307;29;20511;-75
2021/09/01 09:33:17;;;;;;;15.63;10.68;;;14.40;82.60;;;;;;4807048;29;20059;-75
2021/09/01 09:36:04;;;;;;;17.30;11.18;;;14.40;82.50;;;;;;4806060;29;20043;-75
2021/09/01 09:38:45;;;;;;;17.45;11.70;;;14.40;82.50;;;;;;4807242;29;20054;-75
2021/09/01 09:41:20;;;;;;;16.92;9.88;;;14.40;82.60;;;;;;4807264;29;20051;-75
2021/09/01 09:43:52;;;;;;;20.35;10.55;;;14.40;82.60;;;;;;4806956;29;20046;-75
2021/09/01 09:46:20;;;;;;;16.33;10.18;;;14.50;82.60;;;;;;4807484;29;20062;-76
2021/09/01 09:48:50;;;;;;;16.45;10.45;;;14.50;82.50;;;;;;4807290;29;20051;-74
2021/09/01 09:51:34;;;;;;;17.70;10.38;;;14.60;82.50;;;;;;4807089;29;20059;-74
2021/09/01 09:54:14;;;;;;;11.75;8.15;;;14.70;82.40;;;;;;4807029;29;20099;-75
2021/09/01 09:56:42;;;;;;;13.38;8.07;;;14.80;82.00;;;;;;4807039;29;20067;-75
2021/09/01 09:59:15;;;;;;;13.43;8.02;;;14.90;81.70;;;;;;4805564;29;20054;-75
2021/09/01 10:01:43;;;;;;;11.00;7.45;;;15.10;81.50;;;;;;4820581;29;20062;-75
2021/09/01 10:04:12;;;;;;;13.00;7.68;;;15.30;81.30;;;;;;4805640;29;20442;-75
2021/09/01 10:06:41;;;;;;;16.65;8.98;;;15.40;80.80;;;;;;4806484;29;20047;-75
2021/09/01 10:09:09;;;;;;;16.13;9.48;;;15.60;80.40;;;;;;4806241;29;20069;-75
2021/09/01 10:11:46;;;;;;;19.35;9.15;;;15.60;80.00;;;;;;4789878;29;20051;-75
2021/09/01 10:14:22;;;;;;;15.50;9.07;;;15.60;79.80;;;;;;4806437;29;20405;-73
2021/09/01 10:17:02;;;;;;;15.98;8.88;;;15.60;79.60;;;;;;4805954;29;20062;-75
2021/09/01 10:19:30;;;;;;;20.23;8.65;;;15.60;79.50;;;;;;4801689;29;20062;-75
2021/09/01 10:22:02;;;;;;;23.52;8.38;;;15.50;79.30;;;;;;4819497;29;20051;-76
2021/09/01 10:24:31;;;;;;;14.88;8.32;;;15.50;79.30;;;;;;4805474;29;20055;-75
2021/09/01 10:27:05;;;;;;;15.43;8.23;;;15.50;79.20;;;;;;4806615;29;20047;-75
2021/09/01 10:29:37;;;;;;;15.50;9.05;;;15.70;79.00;;;;;;4803815;29;20047;-76
2021/09/01 10:32:51;;;;;;;15.68;9.07;;;15.70;78.70;;;;;;4804340;29;20521;-76
2021/09/01 10:35:18;;;;;;;17.75;9.82;;;15.90;78.30;;;;;;4804421;29;20063;-76
2021/09/01 10:37:49;;;;;;;22.05;9.75;;;16.00;77.70;;;;;;4805021;29;20051;-75
2021/09/01 10:40:23;;;;;;;19.33;9.57;;;16.10;77.30;;;;;;4805322;29;20054;-75
2021/09/01 10:42:56;;;;;;;17.45;10.20;;;16.10;77.10;;;;;;4806378;29;20055;-76
2021/09/01 10:45:44;;;;;;;19.13;10.43;;;16.10;77.00;;;;;;4806130;29;20051;-75
2021/09/01 10:48:12;;;;;;;18.48;10.70;;;16.10;77.00;;;;;;4807843;29;20057;-75
2021/09/01 10:50:45;;;;;;;21.58;10.57;;;16.00;77.20;;;;;;4804153;29;20047;-75
2021/09/01 10:53:25;;;;;;;13.98;10.15;;;16.00;77.40;;;;;;4805243;29;20058;-75
2021/09/01 10:56:01;;;;;;;19.17;10.10;;;16.00;77.50;;;;;;4805734;29;20046;-75
2021/09/01 10:58:34;;;;;;;15.40;9.60;;;15.80;77.60;;;;;;4805454;29;20055;-75
2021/09/01 11:01:08;;;;;;;19.08;10.27;;;15.70;78.00;;;;;;4795111;29;20497;-76
2021/09/01 11:03:40;;;;;;;16.95;10.27;;;15.70;78.20;;;;;;4804018;29;20057;-76
2021/09/01 11:06:21;;;;;;;22.63;10.43;;;15.50;78.50;;;;;;4804070;29;20054;-76
2021/09/01 11:08:56;;;;;;;16.98;10.27;;;15.30;79.00;;;;;;4802966;29;20065;-76
2021/09/01 11:11:56;;;;;;;22.23;11.30;;;15.20;79.40;;;;;;4819556;29;20059;-76
2021/09/01 11:14:38;;;;;;;17.10;10.07;;;15.10;80.00;;;;;;4805462;29;20055;-76
2021/09/01 11:17:09;;;;;;;17.65;10.70;;;15.10;80.40;;;;;;4805304;29;20054;-76
2021/09/01 11:19:40;;;;;;;21.73;11.30;;;15.20;80.50;;;;;;4805005;29;20054;-76
2021/09/01 11:22:16;;;;;;;20.05;10.80;;;15.30;80.70;;;;;;4803093;29;20062;-75
2021/09/01 11:24:52;;;;;;;19.15;10.70;;;15.50;80.60;;;;;;4805288;29;20061;-75
2021/09/01 11:27:23;;;;;;;11.75;9.25;;;15.60;80.30;;;;;;4804809;29;20063;-76
2021/09/01 11:29:58;;;;;;;13.48;8.73;;;15.70;80.10;;;;;;4805463;29;20050;-76
2021/09/01 11:32:26;;;;;;;12.82;8.88;;;15.70;80.00;;;;;;4787187;29;20414;-76
2021/09/01 11:34:54;;;;;;;12.80;8.93;;;15.70;79.70;;;;;;4803440;29;20046;-80
2021/09/01 11:37:22;;;;;;;12.88;9.10;;;15.70;79.70;;;;;;4804301;29;20050;-75
2021/09/01 11:39:51;;;;;;;12.57;9.00;;;15.80;79.70;;;;;;4804898;29;20130;-76
2021/09/01 11:42:34;;;;;;;16.15;9.20;;;15.80;79.50;;;;;;4804953;29;20054;-75
2021/09/01 11:45:08;;;;;;;12.50;8.52;;;15.80;79.40;;;;;;4805112;29;20051;-75
2021/09/01 11:47:43;;;;;;;12.82;9.55;;;15.80;79.40;;;;;;4818739;29;20058;-76
2021/09/01 11:50:16;;;;;;;13.20;8.73;;;15.80;79.30;;;;;;4804994;29;20058;-75
2021/09/01 11:52:50;;;;;;;11.93;9.07;;;16.00;79.30;;;;;;4804271;29;20062;-75
2021/09/01 11:55:25;;;;;;;13.23;8.02;;;16.10;79.10;;;;;;4803842;29;20055;-75
2021/09/01 11:57:53;;;;;;;15.48;8.35;;;16.30;79.00;;;;;;4804625;29;20058;-75
2021/09/01 12:00:21;;;;;;;12.50;6.85;;;16.60;78.40;;;;;;4804870;29;20059;-76
2021/09/01 12:02:50;;;;;;;9.52;7.10;;;16.90;77.60;;;;;;4805047;29;20042;-76
2021/09/01 12:05:36;;;;;;;9.57;6.32;;;17.20;76.70;;;;;;4804860;29;20059;-75
2021/09/01 12:08:05;;;;;;;9.27;5.82;;;17.40;75.70;;;;;;4804043;29;20051;-76
2021/09/01 12:10:32;;;;;;;7.43;5.75;;;17.50;75.00;;;;;;4804558;29;20047;-75
2021/09/01 12:13:04;;;;;;;8.45;5.97;;;17.60;74.00;;;;;;4818281;29;20054;-76
2021/09/01 12:15:33;;;;;;;8.20;5.30;;;17.70;73.40;;;;;;4803056;29;20058;-76
2021/09/01 12:18:03;;;;;;;8.43;5.80;;;17.80;72.90;;;;;;4804501;29;20051;-76
2021/09/01 12:20:35;;;;;;;6.75;5.38;;;17.90;72.10;;;;;;4804740;29;20051;-76
2021/09/01 12:23:14;;;;;;;7.95;5.82;;;18.00;71.80;;;;;;4803401;29;20047;-75
2021/09/01 12:25:42;;;;;;;11.80;6.70;;;18.10;71.30;;;;;;4813401;29;20055;-75
2021/09/01 12:28:10;;;;;;;10.68;5.68;;;18.20;71.20;;;;;;4822799;29;20050;-74
2021/09/01 12:30:46;;;;;;;7.97;5.20;;;18.20;70.80;;;;;;4806810;29;20050;-75
2021/09/01 12:33:17;;;;;;;11.80;5.85;;;18.20;70.10;;;;;;4813606;29;20058;-75
2021/09/01 12:35:59;;;;;;;11.07;6.13;;;18.10;69.40;;;;;;4800246;29;20051;-75
2021/09/01 12:38:28;;;;;;;10.52;6.50;;;18.10;69.50;;;;;;4802062;29;20397;-75
2021/09/01 12:40:56;;;;;;;11.05;6.88;;;18.10;69.60;;;;;;4804568;29;20062;-75
2021/09/01 12:43:23;;;;;;;10.38;6.78;;;18.10;69.80;;;;;;4788438;29;20051;-75
2021/09/01 12:46:00;;;;;;;14.35;6.25;;;18.00;70.10;;;;;;4803927;29;20046;-76
2021/09/01 12:48:41;;;;;;;9.25;5.90;;;18.10;70.50;;;;;;4804454;29;20057;-75
2021/09/01 12:51:10;;;;;;;8.52;5.75;;;18.10;70.40;;;;;;4803334;29;20481;-74